Time;durP1;ratioP1;P1;durP2;ratioP2;P2;SDS_P1;SDS_P2;PMS_P1;PMS_P2;Temp;Humidity;BMP_temperature;BMP_pressure;BME280_temperature;BME280_humidity;BME280_pressure;Samples;Min_cycle;Max_cycle;Signal;HPM_P1;HPM_P2
2021/09/07 00:00:57;;;;;;;;;;;15.70;99.90;;;;;;4981116;28;19947;-84
2021/09/07 00:03:23;;;;;;;;;;;15.50;99.90;;;;;;4978091;28;20051;-83
2021/09/07 00:05:50;;;;;;;;;;;15.50;99.90;;;;;;4989586;28;20047;-82
2021/09/07 00:08:17;;;;;;;;;;;15.40;99.90;;;;;;4978031;28;20301;-80
2021/09/07 00:10:43;;;;;;;;;;;15.30;99.90;;;;;;4980124;28;19940;-82
2021/09/07 00:13:11;;;;;;;;;;;15.30;99.90;;;;;;4978189;28;19978;-80
2021/09/07 00:15:38;;;;;;;;;;;15.30;99.90;;;;;;4979557;28;19947;-82
2021/09/07 00:18:04;;;;;;;;;;;15.30;99.90;;;;;;4975962;28;19938;-82
2021/09/07 00:20:31;;;;;;;;;;;15.50;99.90;;;;;;4976112;28;20048;-81
2021/09/07 00:22:58;;;;;;;;;;;15.40;99.90;;;;;;4974535;28;19939;-81
2021/09/07 00:25:25;;;;;;;;;;;15.40;99.90;;;;;;4987161;28;20300;-82
2021/09/07 00:27:51;;;;;;;;;;;15.30;99.90;;;;;;4977090;28;19953;-83
2021/09/07 00:30:19;;;;;;;;;;;15.30;99.90;;;;;;4979960;28;19939;-83
2021/09/07 00:32:46;;;;;;;;;;;15.10;99.90;;;;;;4979637;28;19961;-83
2021/09/07 00:35:13;;;;;;;;;;;15.10;99.90;;;;;;4986921;28;19982;-82
2021/09/07 00:37:40;;;;;;;;;;;15.10;99.90;;;;;;4976438;28;19953;-83
2021/09/07 00:40:07;;;;;;;;;;;15.00;99.90;;;;;;4976620;28;19959;-83
2021/09/07 00:42:36;;;;;;;;;;;15.00;99.90;;;;;;4956648;28;20493;-81
2021/09/07 00:45:03;;;;;;;;;;;14.90;99.90;;;;;;4979587;28;19939;-82
2021/09/07 00:47:32;;;;;;;;;;;14.90;99.90;;;;;;4979162;28;20420;-81
2021/09/07 00:49:58;;;;;;;;;;;14.90;99.90;;;;;;4979473;28;19963;-80
2021/09/07 00:52:25;;;;;;;;;;;14.80;99.90;;;;;;4976920;28;19969;-81
2021/09/07 00:54:52;;;;;;;;;;;14.80;99.90;;;;;;4976306;28;20477;-80
2021/09/07 00:57:19;;;;;;;;;;;14.80;99.90;;;;;;4985894;28;19986;-79
2021/09/07 00:59:46;;;;;;;;;;;14.70;99.90;;;;;;4977626;28;19945;-82
2021/09/07 01:02:13;;;;;;;;;;;14.80;99.90;;;;;;4979347;28;20755;-82
2021/09/07 01:04:41;;;;;;;;;;;14.70;99.90;;;;;;4973266;28;19966;-82
2021/09/07 01:07:08;;;;;;;;;;;14.80;99.90;;;;;;4974198;28;19945;-81
2021/09/07 01:09:35;;;;;;;;;;;14.80;99.90;;;;;;4982995;28;19942;-82
2021/09/07 01:12:02;;;;;;;;;;;14.80;99.90;;;;;;4976640;28;20052;-81
2021/09/07 01:14:29;;;;;;;;;;;14.80;99.90;;;;;;4975259;28;19940;-84
2021/09/07 01:16:56;;;;;;;;;;;14.80;99.90;;;;;;4986537;28;20032;-83
2021/09/07 01:19:22;;;;;;;;;;;14.70;99.90;;;;;;4978023;28;19959;-82
2021/09/07 01:21:50;;;;;;;;;;;14.70;99.90;;;;;;4974493;28;20430;-83
2021/09/07 01:24:21;;;;;;;;;;;14.60;99.90;;;;;;4979351;28;19946;-83
2021/09/07 01:26:47;;;;;;;;;;;14.60;99.90;;;;;;4982912;28;19940;-83
2021/09/07 01:29:14;;;;;;;;;;;14.60;99.90;;;;;;4980485;28;19939;-82
2021/09/07 01:31:41;;;;;;;;;;;14.50;99.90;;;;;;4987737;28;19970;-83
2021/09/07 01:34:07;;;;;;;;;;;14.50;99.90;;;;;;4983403;28;19990;-83
2021/09/07 01:36:34;;;;;;;;;;;14.60;99.90;;;;;;4973314;28;19945;-83
2021/09/07 01:39:01;;;;;;;;;;;14.60;99.90;;;;;;4976624;28;19996;-83
2021/09/07 01:41:29;;;;;;;;;;;14.50;99.90;;;;;;4974061;28;20353;-83
2021/09/07 01:43:55;;;;;;;;;;;14.50;99.90;;;;;;4972429;28;19946;-83
2021/09/07 01:46:22;;;;;;;;;;;14.40;99.90;;;;;;4973973;28;19942;-83
2021/09/07 01:48:48;;;;;;;;;;;14.40;99.90;;;;;;4982647;28;19949;-83
2021/09/07 01:51:15;;;;;;;;;;;14.40;99.90;;;;;;4974278;28;19948;-83
2021/09/07 01:53:42;;;;;;;;;;;14.40;99.90;;;;;;4968116;28;20049;-83
2021/09/07 01:56:08;;;;;;;;;;;14.30;99.90;;;;;;4976282;28;20016;-83
2021/09/07 01:58:36;;;;;;;;;;;14.40;99.90;;;;;;4979465;28;19961;-84
2021/09/07 02:01:03;;;;;;;;;;;14.30;99.90;;;;;;4987234;28;20185;-84
2021/09/07 02:03:30;;;;;;;;;;;14.30;99.90;;;;;;4974973;28;19946;-83
2021/09/07 02:05:57;;;;;;;;;;;14.20;99.90;;;;;;4982547;28;20388;-84
2021/09/07 02:08:23;;;;;;;;;;;14.10;99.90;;;;;;4985378;28;20413;-84
2021/09/07 02:10:50;;;;;;;;;;;14.10;99.90;;;;;;4983857;28;19958;-83
2021/09/07 02:13:17;;;;;;;;;;;14.00;99.90;;;;;;4982541;28;19964;-83
2021/09/07 02:15:45;;;;;;;;;;;14.00;99.90;;;;;;4976872;28;19947;-82
2021/09/07 02:18:11;;;;;;;;;;;14.00;99.90;;;;;;4976587;28;19940;-81
2021/09/07 02:20:38;;;;;;;;;;;13.90;99.90;;;;;;4990752;28;19982;-81
2021/09/07 02:23:06;;;;;;;;;;;14.00;99.90;;;;;;4986095;28;19974;-81
2021/09/07 02:25:32;;;;;;;;;;;14.10;99.90;;;;;;4980109;28;19989;-81
2021/09/07 02:28:00;;;;;;;;;;;14.20;99.90;;;;;;4984642;28;19955;-80
2021/09/07 02:30:27;;;;;;;;;;;14.40;99.90;;;;;;4986466;28;19947;-82
2021/09/07 02:32:56;;;;;;;;;;;14.30;99.90;;;;;;4981502;28;20057;-82
2021/09/07 02:35:22;;;;;;;;;;;14.30;99.90;;;;;;4984978;28;19938;-82
2021/09/07 02:37:49;;;;;;;;;;;14.40;99.90;;;;;;4977355;28;19941;-82
2021/09/07 02:40:16;;;;;;;;;;;14.20;99.90;;;;;;4989840;28;20341;-82
2021/09/07 02:42:43;;;;;;;;;;;14.10;99.90;;;;;;4988403;28;20048;-82
2021/09/07 02:45:09;;;;;;;;;;;14.10;99.90;;;;;;4973818;28;20030;-83
2021/09/07 02:47:40;;;;;;;;;;;14.00;99.90;;;;;;4982706;28;19944;-81
2021/09/07 02:50:09;;;;;;;;;;;13.90;99.90;;;;;;4981208;28;19965;-82
2021/09/07 02:52:35;;;;;;;;;;;14.00;99.90;;;;;;4977995;28;19981;-82
2021/09/07 02:55:02;;;;;;;;;;;14.00;99.90;;;;;;4980718;28;20042;-82
2021/09/07 02:57:29;;;;;;;;;;;13.90;99.90;;;;;;4973793;28;19986;-82
2021/09/07 02:59:56;;;;;;;;;;;13.90;99.90;;;;;;4975024;28;20340;-82
2021/09/07 03:02:23;;;;;;;;;;;13.80;99.90;;;;;;4972821;28;20393;-82
2021/09/07 03:04:50;;;;;;;;;;;13.80;99.90;;;;;;4985429;28;19948;-81
2021/09/07 03:07:18;;;;;;;;;;;13.80;99.90;;;;;;4981957;28;19961;-82
2021/09/07 03:09:44;;;;;;;;;;;13.70;99.90;;;;;;4980006;28;20435;-81
2021/09/07 03:12:11;;;;;;;;;;;13.80;99.90;;;;;;4972990;28;19967;-82
2021/09/07 03:14:38;;;;;;;;;;;13.80;99.90;;;;;;4975900;28;19955;-82
2021/09/07 03:17:04;;;;;;;;;;;13.70;99.90;;;;;;4980589;28;20234;-84
2021/09/07 03:19:31;;;;;;;;;;;13.60;99.90;;;;;;4982613;28;19946;-83
2021/09/07 03:21:58;;;;;;;;;;;13.60;99.90;;;;;;4977257;28;20330;-82
2021/09/07 03:24:26;;;;;;;;;;;13.70;99.90;;;;;;4979345;28;20432;-82
2021/09/07 03:26:53;;;;;;;;;;;13.60;99.90;;;;;;4978450;28;20452;-81
2021/09/07 03:29:19;;;;;;;;;;;13.70;99.90;;;;;;4973640;28;19944;-82
2021/09/07 03:31:46;;;;;;;;;;;13.70;99.90;;;;;;4977551;28;19960;-82
2021/09/07 03:34:13;;;;;;;;;;;13.70;99.90;;;;;;4977718;28;20129;-81
2021/09/07 03:36:39;;;;;;;;;;;13.70;99.90;;;;;;4984062;28;20047;-83
2021/09/07 03:39:06;;;;;;;;;;;13.70;99.90;;;;;;4985655;28;20022;-82
2021/09/07 03:41:34;;;;;;;;;;;13.70;99.90;;;;;;4977892;28;20363;-82
2021/09/07 03:44:01;;;;;;;;;;;13.60;99.90;;;;;;4982162;28;19932;-83
2021/09/07 03:46:27;;;;;;;;;;;13.70;99.90;;;;;;4983315;28;19964;-83
2021/09/07 03:48:54;;;;;;;;;;;13.70;99.90;;;;;;4987734;28;19950;-83
2021/09/07 03:51:21;;;;;;;;;;;13.70;99.90;;;;;;4975876;28;20029;-82
2021/09/07 03:53:47;;;;;;;;;;;13.60;99.90;;;;;;4975242;28;20036;-82
2021/09/07 03:56:16;;;;;;;;;;;13.50;99.90;;;;;;4979558;28;19985;-80
2021/09/07 03:58:44;;;;;;;;;;;13.50;99.90;;;;;;4973876;28;20037;-83
2021/09/07 04:01:11;;;;;;;;;;;13.50;99.90;;;;;;4979219;28;19987;-82
2021/09/07 04:03:38;;;;;;;;;;;13.50;99.90;;;;;;4973757;28;20469;-82
2021/09/07 04:06:04;;;;;;;;;;;13.50;99.90;;;;;;4988256;28;19947;-82
2021/09/07 04:08:31;;;;;;;;;;;13.40;99.90;;;;;;4980752;28;19963;-82
2021/09/07 04:10:58;;;;;;;;;;;13.50;99.90;;;;;;4971014;28;19957;-82
2021/09/07 04:13:24;;;;;;;;;;;13.50;99.90;;;;;;4974796;28;19970;-82
2021/09/07 04:15:52;;;;;;;;;;;13.60;99.90;;;;;;4975115;28;19943;-83
2021/09/07 04:18:19;;;;;;;;;;;13.60;99.90;;;;;;4983101;28;19941;-83
2021/09/07 04:20:46;;;;;;;;;;;13.50;99.90;;;;;;4980796;28;19945;-82
2021/09/07 04:23:12;;;;;;;;;;;13.50;99.90;;;;;;4974427;28;19942;-81
2021/09/07 04:25:39;;;;;;;;;;;13.40;99.90;;;;;;4975949;28;19952;-81
2021/09/07 04:28:06;;;;;;;;;;;13.40;99.90;;;;;;4976427;28;20044;-81
2021/09/07 04:30:32;;;;;;;;;;;13.40;99.90;;;;;;4977656;28;20043;-82
2021/09/07 04:33:00;;;;;;;;;;;13.40;99.90;;;;;;4974062;28;19956;-82
2021/09/07 04:35:27;;;;;;;;;;;13.50;99.90;;;;;;4975199;28;19946;-82
2021/09/07 04:37:54;;;;;;;;;;;13.50;99.90;;;;;;4975973;28;19939;-82
2021/09/07 04:40:20;;;;;;;;;;;13.50;99.90;;;;;;4982906;28;20039;-83
2021/09/07 04:42:47;;;;;;;;;;;13.50;99.90;;;;;;4975020;28;19940;-83
2021/09/07 04:45:14;;;;;;;;;;;13.60;99.90;;;;;;4975754;28;19946;-82
2021/09/07 04:47:40;;;;;;;;;;;13.60;99.90;;;;;;4971723;28;20351;-83
2021/09/07 04:50:09;;;;;;;;;;;13.50;99.90;;;;;;4978152;28;19949;-82
2021/09/07 04:52:35;;;;;;;;;;;13.60;99.90;;;;;;4978078;28;19970;-82
2021/09/07 04:55:02;;;;;;;;;;;13.50;99.90;;;;;;4979922;28;19960;-82
2021/09/07 04:57:29;;;;;;;;;;;13.40;99.90;;;;;;4972089;28;19955;-82
2021/09/07 04:59:55;;;;;;;;;;;13.40;99.90;;;;;;4987508;28;19950;-81
2021/09/07 05:02:22;;;;;;;;;;;13.50;99.90;;;;;;4983983;28;20477;-91
2021/09/07 05:04:49;;;;;;;;;;;13.50;99.90;;;;;;4987981;28;20306;-91
2021/09/07 05:07:17;;;;;;;;;;;13.50;99.90;;;;;;4966728;28;19990;-91
2021/09/07 05:09:43;;;;;;;;;;;13.40;99.90;;;;;;4993394;28;20045;-91
2021/09/07 05:12:10;;;;;;;;;;;13.40;99.90;;;;;;4986316;28;19943;-91
2021/09/07 05:14:38;;;;;;;;;;;13.40;99.90;;;;;;4985113;28;19943;-91
2021/09/07 05:17:05;;;;;;;;;;;13.40;99.90;;;;;;4987398;28;19958;-91
2021/09/07 05:19:32;;;;;;;;;;;13.40;99.90;;;;;;4988979;28;19959;-91
2021/09/07 05:21:59;;;;;;;;;;;13.50;99.90;;;;;;4991501;28;19969;-90
2021/09/07 05:24:27;;;;;;;;;;;13.50;99.90;;;;;;4988331;28;20529;-88
2021/09/07 05:26:53;;;;;;;;;;;13.60;99.90;;;;;;4991876;28;20013;-89
2021/09/07 05:29:22;;;;;;;;;;;13.60;99.90;;;;;;5003895;28;19947;-87
2021/09/07 05:31:48;;;;;;;;;;;13.60;99.90;;;;;;4994905;28;19977;-91
2021/09/07 05:34:16;;;;;;;;;;;13.60;99.90;;;;;;4996286;28;19962;-90
2021/09/07 05:36:43;;;;;;;;;;;13.70;99.90;;;;;;4999978;28;19943;-91
2021/09/07 05:39:10;;;;;;;;;;;13.80;99.90;;;;;;4999324;28;20001;-91
2021/09/07 05:41:38;;;;;;;;;;;14.00;99.90;;;;;;4968876;28;20424;-90
2021/09/07 05:44:05;;;;;;;;;;;14.10;99.90;;;;;;4977962;28;19949;-88
2021/09/07 05:46:32;;;;;;;;;;;14.00;99.90;;;;;;4970953;28;20337;-87
2021/09/07 05:48:59;;;;;;;;;;;14.10;99.90;;;;;;4975315;28;19957;-88
2021/09/07 05:51:25;;;;;;;;;;;14.20;99.90;;;;;;4973645;28;20443;-85
2021/09/07 05:53:52;;;;;;;;;;;14.10;99.90;;;;;;4972215;28;19968;-87
2021/09/07 05:56:20;;;;;;;;;;;14.20;99.90;;;;;;4972336;28;20069;-87
2021/09/07 05:58:48;;;;;;;;;;;14.20;99.90;;;;;;4972172;28;20326;-88
2021/09/07 06:01:15;;;;;;;;;;;14.20;99.90;;;;;;4970589;28;20558;-86
2021/09/07 06:03:42;;;;;;;;;;;14.20;99.90;;;;;;4971663;28;19949;-88
2021/09/07 06:06:09;;;;;;;;;;;14.20;99.90;;;;;;4975382;28;20001;-85
2021/09/07 06:08:36;;;;;;;;;;;14.20;99.90;;;;;;4973328;28;20013;-87
2021/09/07 06:11:04;;;;;;;;;;;14.20;99.90;;;;;;4981051;28;20025;-84
2021/09/07 06:13:31;;;;;;;;;;;14.30;99.90;;;;;;4985921;28;19982;-89
2021/09/07 06:15:59;;;;;;;;;;;14.40;99.90;;;;;;4984215;28;19944;-90
2021/09/07 06:18:26;;;;;;;;;;;14.50;99.90;;;;;;4993562;28;19995;-88
2021/09/07 06:20:52;;;;;;;;;;;14.60;99.90;;;;;;4982578;28;19954;-86
2021/09/07 06:23:19;;;;;;;;;;;14.60;99.90;;;;;;4981655;28;20004;-88
2021/09/07 06:25:46;;;;;;;;;;;14.70;99.90;;;;;;4976502;28;19980;-83
2021/09/07 06:28:12;;;;;;;;;;;14.80;99.90;;;;;;4980225;28;20080;-88
2021/09/07 06:30:39;;;;;;;;;;;14.90;99.90;;;;;;4983397;28;20470;-90
2021/09/07 06:33:07;;;;;;;;;;;15.00;99.90;;;;;;4985528;28;19967;-87
2021/09/07 06:35:34;;;;;;;;;;;15.10;99.90;;;;;;4983739;28;20026;-89
2021/09/07 06:38:01;;;;;;;;;;;15.20;99.90;;;;;;4979449;28;20024;-88
2021/09/07 06:40:28;;;;;;;;;;;15.30;99.90;;;;;;4989269;28;19952;-90
2021/09/07 06:42:55;;;;;;;;;;;15.40;99.90;;;;;;4991074;28;20012;-87
2021/09/07 06:45:22;;;;;;;;;;;15.40;99.90;;;;;;4980886;28;19931;-85
2021/09/07 06:47:48;;;;;;;;;;;15.50;99.90;;;;;;4977403;28;19960;-90
2021/09/07 06:50:16;;;;;;;;;;;15.50;99.90;;;;;;4989033;28;20502;-84
2021/09/07 06:52:43;;;;;;;;;;;15.70;99.90;;;;;;4983428;28;19968;-83
2021/09/07 06:55:10;;;;;;;;;;;15.90;99.90;;;;;;4989445;28;19983;-83
2021/09/07 06:57:37;;;;;;;;;;;16.00;99.90;;;;;;4979757;28;19985;-81
2021/09/07 07:00:05;;;;;;;;;;;16.10;99.90;;;;;;4978233;28;19974;-81
2021/09/07 07:02:31;;;;;;;;;;;16.00;99.90;;;;;;4990134;28;19938;-81
2021/09/07 07:04:58;;;;;;;;;;;16.10;99.90;;;;;;4977135;28;19944;-84
2021/09/07 07:07:26;;;;;;;;;;;16.10;99.90;;;;;;4973727;28;19942;-88
2021/09/07 07:09:53;;;;;;;;;;;16.30;99.90;;;;;;4986187;28;20424;-84
2021/09/07 07:12:19;;;;;;;;;;;16.40;99.90;;;;;;4987922;28;20029;-86
2021/09/07 07:14:46;;;;;;;;;;;16.60;99.90;;;;;;4983118;28;19970;-84
2021/09/07 07:17:13;;;;;;;;;;;16.80;99.90;;;;;;4979699;28;19947;-84
2021/09/07 07:19:39;;;;;;;;;;;17.10;99.90;;;;;;4981387;28;20050;-86
2021/09/07 07:22:06;;;;;;;;;;;17.70;99.90;;;;;;4988822;28;20443;-79
2021/09/07 07:24:34;;;;;;;;;;;19.20;99.90;;;;;;4989358;28;19947;-83
2021/09/07 07:27:01;;;;;;;;;;;20.70;99.90;;;;;;4986069;28;19944;-86
2021/09/07 07:29:28;;;;;;;;;;;22.20;99.90;;;;;;4982372;28;19989;-82
2021/09/07 07:31:55;;;;;;;;;;;23.10;99.90;;;;;;4984874;28;19965;-86
2021/09/07 07:34:22;;;;;;;;;;;23.40;99.90;;;;;;4984835;28;19963;-84
2021/09/07 07:36:49;;;;;;;;;;;22.40;99.90;;;;;;4980894;28;19947;-82
2021/09/07 07:39:15;;;;;;;;;;;21.90;99.90;;;;;;4981304;28;19948;-83
2021/09/07 07:41:43;;;;;;;;;;;21.90;99.90;;;;;;4985502;28;20235;-83
2021/09/07 07:44:10;;;;;;;;;;;21.70;99.90;;;;;;4988424;28;19926;-84
2021/09/07 07:46:37;;;;;;;;;;;22.00;99.90;;;;;;4988775;28;19965;-85
2021/09/07 07:49:04;;;;;;;;;;;21.90;99.90;;;;;;4982461;28;19930;-84
2021/09/07 07:51:31;;;;;;;;;;;23.30;99.90;;;;;;4982585;28;19934;-83
2021/09/07 07:53:57;;;;;;;;;;;22.70;99.90;;;;;;4981084;28;20032;-84
2021/09/07 07:56:24;;;;;;;;;;;23.10;99.90;;;;;;4978709;28;19929;-81
2021/09/07 07:58:52;;;;;;;;;;;23.80;99.90;;;;;;4974285;28;20464;-82
2021/09/07 08:01:18;;;;;;;;;;;23.70;99.90;;;;;;4977691;28;20562;-82
2021/09/07 08:03:46;;;;;;;;;;;24.40;99.90;;;;;;4982801;28;19991;-83
2021/09/07 08:06:13;;;;;;;;;;;24.90;99.90;;;;;;4992771;28;19937;-82
2021/09/07 08:08:40;;;;;;;;;;;24.90;99.90;;;;;;4987244;28;19973;-83
2021/09/07 08:11:06;;;;;;;;;;;24.90;99.90;;;;;;4986215;28;19932;-85
2021/09/07 08:13:33;;;;;;;;;;;23.80;99.90;;;;;;4995072;28;19936;-82
2021/09/07 08:16:01;;;;;;;;;;;23.70;99.90;;;;;;4995694;28;20002;-85
2021/09/07 08:18:28;;;;;;;;;;;23.60;99.90;;;;;;4976582;28;19934;-85
2021/09/07 08:20:55;;;;;;;;;;;24.30;99.90;;;;;;4976541;28;19961;-85
2021/09/07 08:23:22;;;;;;;;;;;25.00;99.90;;;;;;4985436;28;19926;-86
2021/09/07 08:25:49;;;;;;;;;;;25.20;99.90;;;;;;4971103;28;20020;-84
2021/09/07 08:28:15;;;;;;;;;;;24.70;99.90;;;;;;4983280;28;19925;-85
2021/09/07 08:30:42;;;;;;;;;;;24.30;99.90;;;;;;4974219;28;19940;-84
2021/09/07 08:33:13;;;;;;;;;;;25.10;99.90;;;;;;4982041;28;19977;-85
2021/09/07 08:35:40;;;;;;;;;;;26.20;99.90;;;;;;4985275;28;19933;-85
2021/09/07 08:38:07;;;;;;;;;;;26.20;99.90;;;;;;4974647;28;19980;-85
2021/09/07 08:40:34;;;;;;;;;;;26.10;99.90;;;;;;4976628;28;19926;-85
2021/09/07 08:43:02;;;;;;;;;;;25.60;99.90;;;;;;4985426;28;19926;-80
2021/09/07 08:45:29;;;;;;;;;;;25.70;99.90;;;;;;4978383;28;19935;-80
2021/09/07 08:47:56;;;;;;;;;;;25.30;99.90;;;;;;4979619;28;19926;-81
2021/09/07 08:50:24;;;;;;;;;;;26.00;99.90;;;;;;4985365;28;19926;-80
2021/09/07 08:52:54;;;;;;;;;;;25.80;99.90;;;;;;4980315;28;20029;-77
2021/09/07 08:55:21;;;;;;;;;;;27.20;99.90;;;;;;4980247;28;19989;-80
2021/09/07 08:57:48;;;;;;;;;;;27.60;99.90;;;;;;4985239;28;19936;-80
2021/09/07 09:00:15;;;;;;;;;;;26.20;99.90;;;;;;4974919;28;20032;-80
2021/09/07 09:02:43;;;;;;;;;;;26.50;99.90;;;;;;4975295;28;19981;-80
2021/09/07 09:05:10;;;;;;;;;;;26.40;99.90;;;;;;4971958;28;19926;-81
2021/09/07 09:07:38;;;;;;;;;;;25.80;99.90;;;;;;4977168;28;19932;-80
2021/09/07 09:10:05;;;;;;;;;;;26.20;99.90;;;;;;4973106;28;19930;-81
2021/09/07 09:12:33;;;;;;;;;;;27.30;98.30;;;;;;4985325;28;19930;-80
2021/09/07 09:15:00;;;;;;;;;;;29.10;92.90;;;;;;4980014;28;19926;-86
2021/09/07 09:17:28;;;;;;;;;;;28.40;92.80;;;;;;4982623;28;19926;-84
2021/09/07 09:19:56;;;;;;;;;;;26.60;96.50;;;;;;4982575;28;19934;-82
2021/09/07 09:22:39;;;;;;;;;;;26.40;95.80;;;;;;4977528;28;20385;-85
2021/09/07 09:25:23;;;;;;;;;;;26.20;96.70;;;;;;4984488;28;19948;-83
2021/09/07 09:27:51;;;;;;;;;;;26.50;95.70;;;;;;4981534;28;19926;-82
2021/09/07 09:30:24;;;;;;;;;;;27.10;93.60;;;;;;4983734;28;19961;-83
2021/09/07 09:32:51;;;;;;;;;;;27.50;92.50;;;;;;4983067;28;19926;-84
2021/09/07 09:35:18;;;;;;;;;;;26.50;95.10;;;;;;4986767;28;19926;-80
2021/09/07 09:37:53;;;;;;;;;;;26.90;93.40;;;;;;4978788;28;19926;-82
2021/09/07 09:40:21;;;;;;;;;;;26.50;94.60;;;;;;4985036;28;20009;-78
2021/09/07 09:42:48;;;;;;;;;;;26.80;94.30;;;;;;4987145;28;19934;-80
2021/09/07 09:45:15;;;;;;;;;;;27.00;94.50;;;;;;4990145;28;19926;-80
2021/09/07 09:47:43;;;;;;;;;;;26.60;94.40;;;;;;4992201;28;20080;-81
2021/09/07 09:50:10;;;;;;;;;;;26.90;94.00;;;;;;4980810;28;19932;-83
2021/09/07 09:52:38;;;;;;;;;;;26.90;93.10;;;;;;4988455;28;19948;-81
2021/09/07 09:55:06;;;;;;;;;;;27.30;92.30;;;;;;4981769;28;20053;-83
2021/09/07 09:57:34;;;;;;;;;;;25.80;93.90;;;;;;4984149;28;20365;-85
2021/09/07 10:00:03;;;;;;;;;;;24.80;95.30;;;;;;4981938;28;20023;-85
2021/09/07 10:02:30;;;;;;;;;;;24.60;98.00;;;;;;4976870;28;19976;-84
2021/09/07 10:04:57;;;;;;;;;;;24.00;98.40;;;;;;4982698;28;20678;-83
2021/09/07 10:07:24;;;;;;;;;;;23.80;98.90;;;;;;4974519;28;20033;-82
2021/09/07 10:09:50;;;;;;;;;;;23.70;98.70;;;;;;4989521;28;20020;-84
2021/09/07 10:12:20;;;;;;;;;;;23.80;97.50;;;;;;4988841;28;20294;-81
2021/09/07 10:14:56;;;;;;;;;;;24.10;96.00;;;;;;4984863;28;19934;-83
2021/09/07 10:17:31;;;;;;;;;;;24.50;97.70;;;;;;4989604;28;19926;-80
2021/09/07 10:20:09;;;;;;;;;;;24.40;97.10;;;;;;5002596;22;19926;-82
2021/09/07 10:25:48;;;;;;;;;;;25.10;94.10;;;;;;4994265;28;20308;-80
2021/09/07 10:28:28;;;;;;;;;;;24.70;94.10;;;;;;4991682;28;19933;-78
2021/09/07 10:31:13;;;;;;;;;;;24.60;95.10;;;;;;4984288;28;20017;-80
2021/09/07 10:33:41;;;;;;;;;;;24.40;93.60;;;;;;4993396;28;19972;-86
2021/09/07 10:36:12;;;;;;;;;;;24.50;93.40;;;;;;4994114;28;19930;-82
2021/09/07 10:38:40;;;;;;;;;;;24.20;94.30;;;;;;4990038;28;20391;-85
2021/09/07 10:41:07;;;;;;;;;;;24.10;94.50;;;;;;4991828;28;19973;-82
2021/09/07 10:43:47;;;;;;;;;;;24.40;93.50;;;;;;4997271;28;19929;-79
2021/09/07 10:46:15;;;;;;;;;;;24.60;92.10;;;;;;4974207;28;19926;-84
2021/09/07 10:48:45;;;;;;;;;;;24.80;90.50;;;;;;4989038;28;20377;-81
2021/09/07 10:51:12;;;;;;;;;;;24.80;88.70;;;;;;4983725;28;21387;-84
2021/09/07 10:53:38;;;;;;;;;;;24.90;88.50;;;;;;4986664;28;19958;-82
2021/09/07 10:56:27;;;;;;;;;;;25.20;85.00;;;;;;4985433;28;20056;-82
2021/09/07 10:58:54;;;;;;;;;;;25.50;84.90;;;;;;4994554;28;19942;-84
2021/09/07 11:01:32;;;;;;;;;;;25.60;83.90;;;;;;4984987;28;19932;-84
2021/09/07 11:04:17;;;;;;;;;;;25.80;82.30;;;;;;4994920;28;19926;-81
2021/09/07 11:06:43;;;;;;;;;;;26.00;81.40;;;;;;4989884;28;19926;-83
2021/09/07 11:09:29;;;;;;;;;;;26.10;81.30;;;;;;4991136;28;19935;-83
2021/09/07 11:12:24;;;;;;;;;;;26.10;82.90;;;;;;4992391;28;19953;-81
2021/09/07 11:15:00;;;;;;;;;;;25.50;90.30;;;;;;4993902;28;19925;-72
2021/09/07 11:17:28;;;;;;;;;;;25.10;92.40;;;;;;4991109;28;19926;-79
2021/09/07 11:19:58;;;;;;;;;;;25.50;91.70;;;;;;4990287;28;19926;-80
2021/09/07 11:22:29;;;;;;;;;;;25.80;92.40;;;;;;4995543;28;20442;-80
2021/09/07 11:25:06;;;;;;;;;;;25.50;93.50;;;;;;4986301;28;19934;-81
2021/09/07 11:27:49;;;;;;;;;;;25.90;92.40;;;;;;4989917;28;19933;-76
2021/09/07 11:30:26;;;;;;;;;;;25.50;92.90;;;;;;4996266;28;19948;-79
2021/09/07 11:33:05;;;;;;;;;;;25.50;93.20;;;;;;4991337;28;20016;-82
2021/09/07 11:35:33;;;;;;;;;;;25.40;92.60;;;;;;4995030;28;20031;-81
2021/09/07 11:38:00;;;;;;;;;;;25.50;92.80;;;;;;4981947;28;20020;-82
2021/09/07 11:40:27;;;;;;;;;;;25.90;92.00;;;;;;4995793;28;20246;-87
2021/09/07 11:42:54;;;;;;;;;;;26.00;91.40;;;;;;4989058;28;19934;-79
2021/09/07 11:45:22;;;;;;;;;;;26.10;91.90;;;;;;4995872;28;20016;-79
2021/09/07 11:47:49;;;;;;;;;;;25.90;93.10;;;;;;4984197;28;19930;-81
2021/09/07 11:50:19;;;;;;;;;;;26.00;92.10;;;;;;4997683;28;20024;-81
2021/09/07 11:52:46;;;;;;;;;;;25.80;92.90;;;;;;4990894;28;19926;-81
2021/09/07 11:55:32;;;;;;;;;;;25.90;92.60;;;;;;4994590;28;19996;-81
2021/09/07 11:57:58;;;;;;;;;;;25.80;92.70;;;;;;4983640;28;19939;-79
2021/09/07 12:00:25;;;;;;;;;;;25.80;92.50;;;;;;4986670;28;20344;-81
2021/09/07 12:03:07;;;;;;;;;;;26.30;91.90;;;;;;4985942;28;19925;-79
2021/09/07 12:05:48;;;;;;;;;;;26.50;91.20;;;;;;4997404;28;20016;-80
2021/09/07 12:08:16;;;;;;;;;;;26.50;90.40;;;;;;4987813;28;20388;-80
2021/09/07 12:10:51;;;;;;;;;;;26.80;90.40;;;;;;4998618;28;19925;-78
2021/09/07 12:13:18;;;;;;;;;;;26.90;90.30;;;;;;4991036;28;20288;-75
2021/09/07 12:15:45;;;;;;;;;;;26.70;90.50;;;;;;4992645;28;19929;-74
2021/09/07 12:18:25;;;;;;;;;;;26.80;89.50;;;;;;4988247;28;19959;-75
2021/09/07 12:20:51;;;;;;;;;;;26.80;88.10;;;;;;4993103;28;20096;-75
2021/09/07 12:23:31;;;;;;;;;;;26.90;87.70;;;;;;4983085;28;20444;-77
2021/09/07 12:25:58;;;;;;;;;;;26.70;88.30;;;;;;4978861;28;19932;-79
2021/09/07 12:28:24;;;;;;;;;;;26.50;90.30;;;;;;4977343;28;19930;-77
2021/09/07 12:30:51;;;;;;;;;;;26.60;90.70;;;;;;4976852;28;20273;-78
2021/09/07 12:33:19;;;;;;;;;;;26.60;90.00;;;;;;4982145;28;20338;-77
2021/09/07 12:35:53;;;;;;;;;;;26.70;90.00;;;;;;4971543;28;19926;-78
2021/09/07 12:38:20;;;;;;;;;;;26.90;88.90;;;;;;4973476;28;19925;-77
2021/09/07 12:40:49;;;;;;;;;;;27.00;89.10;;;;;;4976711;28;19926;-77
2021/09/07 12:43:17;;;;;;;;;;;27.00;88.70;;;;;;4986644;28;19937;-79
2021/09/07 12:45:44;;;;;;;;;;;27.00;88.30;;;;;;4986971;28;20017;-79
2021/09/07 12:48:11;;;;;;;;;;;27.20;89.30;;;;;;4975551;28;19926;-77
2021/09/07 12:50:38;;;;;;;;;;;27.10;89.30;;;;;;4974516;28;20028;-75
2021/09/07 12:53:07;;;;;;;;;;;27.30;88.50;;;;;;4975873;28;19926;-79
2021/09/07 12:55:33;;;;;;;;;;;27.30;87.80;;;;;;4973775;28;19926;-76
2021/09/07 12:58:01;;;;;;;;;;;27.40;89.20;;;;;;4977531;28;19926;-78
2021/09/07 13:00:30;;;;;;;;;;;27.10;90.30;;;;;;4985219;28;20046;-76
2021/09/07 13:02:57;;;;;;;;;;;26.70;90.70;;;;;;4978678;28;20295;-76
2021/09/07 13:05:23;;;;;;;;;;;26.50;91.30;;;;;;4976566;28;19926;-77
2021/09/07 13:07:50;;;;;;;;;;;26.30;91.30;;;;;;4980334;28;19980;-76
2021/09/07 13:10:17;;;;;;;;;;;26.20;90.70;;;;;;4987721;28;19961;-77
2021/09/07 13:12:43;;;;;;;;;;;26.40;91.20;;;;;;4977825;28;19926;-77
2021/09/07 13:15:11;;;;;;;;;;;26.80;90.70;;;;;;4983429;28;19945;-77
2021/09/07 13:17:38;;;;;;;;;;;27.10;90.10;;;;;;4973792;28;19926;-75
2021/09/07 13:20:05;;;;;;;;;;;27.30;90.40;;;;;;4979008;28;19932;-78
2021/09/07 13:22:32;;;;;;;;;;;26.70;90.30;;;;;;4978724;28;20104;-78
2021/09/07 13:24:59;;;;;;;;;;;26.70;90.40;;;;;;4981460;28;20579;-76
2021/09/07 13:27:25;;;;;;;;;;;26.80;89.70;;;;;;4968406;28;20004;-79
2021/09/07 13:29:52;;;;;;;;;;;26.80;90.70;;;;;;4970486;28;20460;-79
2021/09/07 13:32:20;;;;;;;;;;;26.80;90.80;;;;;;4977053;28;20397;-79
2021/09/07 13:34:47;;;;;;;;;;;26.90;91.00;;;;;;4977885;28;19926;-77
2021/09/07 13:37:14;;;;;;;;;;;27.30;90.00;;;;;;4984772;28;19996;-73
2021/09/07 13:39:40;;;;;;;;;;;27.60;88.10;;;;;;4974256;28;19927;-76
2021/09/07 13:42:07;;;;;;;;;;;27.40;88.60;;;;;;4970522;28;19936;-76
2021/09/07 13:44:34;;;;;;;;;;;27.40;88.00;;;;;;4982018;28;20045;-75
2021/09/07 13:47:00;;;;;;;;;;;27.10;90.10;;;;;;4982709;28;20031;-77
2021/09/07 13:49:28;;;;;;;;;;;27.20;90.00;;;;;;4984852;28;20005;-78
2021/09/07 13:51:55;;;;;;;;;;;27.20;91.00;;;;;;4977117;28;20017;-79
2021/09/07 13:54:22;;;;;;;;;;;27.10;90.00;;;;;;4977794;28;19977;-77
2021/09/07 13:56:49;;;;;;;;;;;27.10;90.20;;;;;;4969005;28;20030;-78
2021/09/07 13:59:16;;;;;;;;;;;27.20;89.20;;;;;;4965631;28;19930;-79
2021/09/07 14:01:42;;;;;;;;;;;27.40;88.10;;;;;;4980989;28;19934;-78
2021/09/07 14:04:09;;;;;;;;;;;27.40;86.60;;;;;;4966847;28;20076;-77
2021/09/07 14:06:37;;;;;;;;;;;27.20;90.00;;;;;;4969385;28;20443;-79
2021/09/07 14:09:03;;;;;;;;;;;27.30;89.60;;;;;;4966376;28;19930;-75
2021/09/07 14:11:30;;;;;;;;;;;27.60;87.00;;;;;;4968738;28;19944;-79
2021/09/07 14:13:57;;;;;;;;;;;27.20;87.00;;;;;;4966744;28;19952;-77
2021/09/07 14:16:24;;;;;;;;;;;27.40;85.30;;;;;;4967503;28;19944;-76
2021/09/07 14:18:51;;;;;;;;;;;27.60;85.90;;;;;;4967921;28;20349;-77
2021/09/07 14:21:17;;;;;;;;;;;27.70;85.10;;;;;;4965783;28;19930;-76
2021/09/07 14:23:45;;;;;;;;;;;27.60;85.30;;;;;;4964863;28;20375;-77